To NAV CANADA Home Page Login to a new session Search on AWWS site Disclaimer Vers la page française équivalente Tips FAQ What's new on the site To the Forecasts and Observations / NOTAM section To "File a Flight Plan" website Publications and other links Update of the User's profile FIC Telephone Numbers My Weather Data Folder Route Weather Data Regional Weather Data Local Weather Data To the Forecasts and Observations / NOTAM section
Request Generated 04/25/2019 at 08:05:47 UTC . Weather information available at that time is displayed.

METAR/TAF

FARO/YT    (show WxCam)

LWIS CZFA 250800Z AUTO 29006KT 270V330 M02/M05 A3009=
LWIS CZFA 250700Z AUTO VRB02KT M01/M05 A3008=
LWIS CZFA 250600Z AUTO 29005KT 230V310 M01/M06 A3007=

*** REMARK        : Forecast period has ended; this was the last TAF issued
*** REMARQUE : La période de prévision est échue; ceci était le dernier TAF qui a été émis
TAF CZFA 241738Z 2418/2422 29010G20KT P6SM BKN050 TEMPO 2418/2422 3SM
-SHSN BKN040
RMK NXT FCST WILL BE ISSUED AT 251545Z=
Your time UTC time
Weather data provided by Environment Canada and NAV CANADA